sensor_id;sensor_type;location;lat;lon;timestamp;P1;durP1;ratioP1;P2;durP2;ratioP2
37284;SDS011;23172;53.550;9.964;2022-11-20T00:04:37;9.60;;;7.53;;
37284;SDS011;23172;53.550;9.964;2022-11-20T00:09:39;7.72;;;6.47;;
37284;SDS011;23172;53.550;9.964;2022-11-20T00:14:42;23.40;;;17.55;;
37284;SDS011;23172;53.550;9.964;2022-11-20T00:19:44;22.40;;;19.53;;
37284;SDS011;23172;53.550;9.964;2022-11-20T00:24:46;14.00;;;9.27;;
37284;SDS011;23172;53.550;9.964;2022-11-20T00:29:49;7.30;;;6.27;;
37284;SDS011;23172;53.550;9.964;2022-11-20T00:34:51;7.67;;;6.87;;
37284;SDS011;23172;53.550;9.964;2022-11-20T00:39:53;6.88;;;5.90;;
37284;SDS011;23172;53.550;9.964;2022-11-20T00:44:56;7.75;;;6.93;;
37284;SDS011;23172;53.550;9.964;2022-11-20T00:49:58;6.90;;;6.13;;
37284;SDS011;23172;53.550;9.964;2022-11-20T00:55:00;8.27;;;6.35;;
37284;SDS011;23172;53.550;9.964;2022-11-20T01:00:04;9.23;;;7.60;;
37284;SDS011;23172;53.550;9.964;2022-11-20T01:05:07;9.60;;;7.78;;
37284;SDS011;23172;53.550;9.964;2022-11-20T01:10:09;12.03;;;9.57;;
37284;SDS011;23172;53.550;9.964;2022-11-20T01:15:12;11.52;;;9.70;;
37284;SDS011;23172;53.550;9.964;2022-11-20T01:20:14;12.02;;;10.13;;
37284;SDS011;23172;53.550;9.964;2022-11-20T01:25:16;12.83;;;10.23;;
37284;SDS011;23172;53.550;9.964;2022-11-20T01:30:19;8.57;;;7.30;;
37284;SDS011;23172;53.550;9.964;2022-11-20T01:35:21;9.77;;;7.43;;
37284;SDS011;23172;53.550;9.964;2022-11-20T01:40:23;8.60;;;6.93;;
37284;SDS011;23172;53.550;9.964;2022-11-20T01:51:06;6.38;;;5.72;;
37284;SDS011;23172;53.550;9.964;2022-11-20T01:56:14;12.88;;;11.50;;
37284;SDS011;23172;53.550;9.964;2022-11-20T02:01:18;7.38;;;6.65;;
37284;SDS011;23172;53.550;9.964;2022-11-20T02:06:22;9.80;;;7.45;;
37284;SDS011;23172;53.550;9.964;2022-11-20T02:11:27;10.07;;;8.57;;
37284;SDS011;23172;53.550;9.964;2022-11-20T02:16:33;7.93;;;7.13;;
37284;SDS011;23172;53.550;9.964;2022-11-20T02:21:39;9.32;;;8.15;;
37284;SDS011;23172;53.550;9.964;2022-11-20T02:26:49;9.27;;;8.25;;
37284;SDS011;23172;53.550;9.964;2022-11-20T02:31:54;8.82;;;7.90;;
37284;SDS011;23172;53.550;9.964;2022-11-20T02:36:58;7.70;;;6.90;;
37284;SDS011;23172;53.550;9.964;2022-11-20T02:42:02;8.93;;;7.87;;
37284;SDS011;23172;53.550;9.964;2022-11-20T02:47:04;7.68;;;6.82;;
37284;SDS011;23172;53.550;9.964;2022-11-20T02:52:06;8.83;;;6.90;;
37284;SDS011;23172;53.550;9.964;2022-11-20T02:57:09;8.98;;;7.63;;
37284;SDS011;23172;53.550;9.964;2022-11-20T03:02:11;9.65;;;8.65;;
37284;SDS011;23172;53.550;9.964;2022-11-20T03:07:13;10.00;;;8.90;;
37284;SDS011;23172;53.550;9.964;2022-11-20T03:12:16;18.33;;;15.43;;
37284;SDS011;23172;53.550;9.964;2022-11-20T03:17:18;14.67;;;13.07;;
37284;SDS011;23172;53.550;9.964;2022-11-20T03:22:20;12.13;;;10.52;;
37284;SDS011;23172;53.550;9.964;2022-11-20T03:27:23;10.50;;;9.40;;
37284;SDS011;23172;53.550;9.964;2022-11-20T03:32:25;22.37;;;15.87;;
37284;SDS011;23172;53.550;9.964;2022-11-20T03:37:27;14.07;;;11.88;;
37284;SDS011;23172;53.550;9.964;2022-11-20T03:42:30;10.53;;;9.43;;
37284;SDS011;23172;53.550;9.964;2022-11-20T03:47:47;10.27;;;9.18;;
37284;SDS011;23172;53.550;9.964;2022-11-20T03:52:49;10.63;;;8.80;;
37284;SDS011;23172;53.550;9.964;2022-11-20T03:57:52;8.88;;;7.95;;
37284;SDS011;23172;53.550;9.964;2022-11-20T04:02:57;7.00;;;5.87;;
37284;SDS011;23172;53.550;9.964;2022-11-20T04:07:59;8.40;;;7.15;;
37284;SDS011;23172;53.550;9.964;2022-11-20T04:13:02;9.83;;;8.53;;
37284;SDS011;23172;53.550;9.964;2022-11-20T04:18:04;7.77;;;6.00;;
37284;SDS011;23172;53.550;9.964;2022-11-20T04:23:06;7.63;;;6.32;;
37284;SDS011;23172;53.550;9.964;2022-11-20T04:28:09;7.20;;;5.50;;
37284;SDS011;23172;53.550;9.964;2022-11-20T04:33:11;6.65;;;6.03;;
37284;SDS011;23172;53.550;9.964;2022-11-20T04:38:13;8.43;;;6.88;;
37284;SDS011;23172;53.550;9.964;2022-11-20T04:43:16;6.28;;;5.55;;
37284;SDS011;23172;53.550;9.964;2022-11-20T04:48:18;8.75;;;6.85;;
37284;SDS011;23172;53.550;9.964;2022-11-20T04:53:20;9.20;;;7.73;;
37284;SDS011;23172;53.550;9.964;2022-11-20T04:58:24;18.77;;;13.13;;
37284;SDS011;23172;53.550;9.964;2022-11-20T05:03:26;14.73;;;13.27;;
37284;SDS011;23172;53.550;9.964;2022-11-20T05:08:28;7.47;;;5.80;;
37284;SDS011;23172;53.550;9.964;2022-11-20T05:13:31;5.97;;;5.38;;
37284;SDS011;23172;53.550;9.964;2022-11-20T05:18:33;7.00;;;6.25;;
37284;SDS011;23172;53.550;9.964;2022-11-20T05:23:36;6.18;;;5.57;;
37284;SDS011;23172;53.550;9.964;2022-11-20T05:28:40;5.65;;;5.15;;
37284;SDS011;23172;53.550;9.964;2022-11-20T05:33:42;6.40;;;5.22;;
37284;SDS011;23172;53.550;9.964;2022-11-20T05:38:45;7.15;;;6.45;;
37284;SDS011;23172;53.550;9.964;2022-11-20T05:43:48;6.90;;;6.20;;
37284;SDS011;23172;53.550;9.964;2022-11-20T05:48:51;10.30;;;9.18;;
37284;SDS011;23172;53.550;9.964;2022-11-20T05:53:53;13.52;;;11.13;;
37284;SDS011;23172;53.550;9.964;2022-11-20T05:58:56;8.07;;;7.27;;
37284;SDS011;23172;53.550;9.964;2022-11-20T06:03:58;7.00;;;6.30;;
37284;SDS011;23172;53.550;9.964;2022-11-20T06:09:00;7.38;;;6.68;;
37284;SDS011;23172;53.550;9.964;2022-11-20T06:14:03;9.00;;;8.10;;
37284;SDS011;23172;53.550;9.964;2022-11-20T06:19:05;10.20;;;9.20;;
37284;SDS011;23172;53.550;9.964;2022-11-20T06:24:08;8.93;;;8.02;;
37284;SDS011;23172;53.550;9.964;2022-11-20T06:29:12;13.68;;;11.52;;
37284;SDS011;23172;53.550;9.964;2022-11-20T06:34:15;8.60;;;7.70;;
37284;SDS011;23172;53.550;9.964;2022-11-20T06:39:17;8.90;;;8.00;;
37284;SDS011;23172;53.550;9.964;2022-11-20T06:44:20;8.38;;;7.57;;
37284;SDS011;23172;53.550;9.964;2022-11-20T06:49:22;9.20;;;7.80;;
37284;SDS011;23172;53.550;9.964;2022-11-20T06:54:25;6.82;;;6.20;;
37284;SDS011;23172;53.550;9.964;2022-11-20T06:59:28;6.10;;;5.60;;
37284;SDS011;23172;53.550;9.964;2022-11-20T07:04:30;6.23;;;5.50;;
37284;SDS011;23172;53.550;9.964;2022-11-20T07:09:32;6.88;;;5.97;;
37284;SDS011;23172;53.550;9.964;2022-11-20T07:14:35;7.72;;;6.65;;
37284;SDS011;23172;53.550;9.964;2022-11-20T07:19:46;6.30;;;5.70;;
37284;SDS011;23172;53.550;9.964;2022-11-20T07:24:48;5.72;;;5.22;;
37284;SDS011;23172;53.550;9.964;2022-11-20T07:29:51;6.17;;;5.57;;
37284;SDS011;23172;53.550;9.964;2022-11-20T07:34:53;7.63;;;6.93;;
37284;SDS011;23172;53.550;9.964;2022-11-20T07:39:55;5.93;;;5.20;;
37284;SDS011;23172;53.550;9.964;2022-11-20T07:44:58;5.67;;;5.17;;
37284;SDS011;23172;53.550;9.964;2022-11-20T07:50:00;6.60;;;6.00;;
37284;SDS011;23172;53.550;9.964;2022-11-20T07:55:02;7.63;;;6.53;;
37284;SDS011;23172;53.550;9.964;2022-11-20T08:00:07;7.03;;;6.33;;
37284;SDS011;23172;53.550;9.964;2022-11-20T08:05:11;6.00;;;5.40;;
37284;SDS011;23172;53.550;9.964;2022-11-20T08:10:13;6.00;;;5.50;;
37284;SDS011;23172;53.550;9.964;2022-11-20T08:15:18;6.57;;;5.70;;
37284;SDS011;23172;53.550;9.964;2022-11-20T08:20:20;6.43;;;5.70;;
37284;SDS011;23172;53.550;9.964;2022-11-20T08:25:22;6.30;;;5.70;;
37284;SDS011;23172;53.550;9.964;2022-11-20T08:30:25;7.83;;;6.17;;
37284;SDS011;23172;53.550;9.964;2022-11-20T08:35:27;5.28;;;4.78;;
37284;SDS011;23172;53.550;9.964;2022-11-20T08:40:29;4.73;;;4.33;;
37284;SDS011;23172;53.550;9.964;2022-11-20T08:45:33;4.30;;;3.60;;
37284;SDS011;23172;53.550;9.964;2022-11-20T08:50:35;3.85;;;3.10;;
37284;SDS011;23172;53.550;9.964;2022-11-20T08:55:36;3.33;;;3.03;;
37284;SDS011;23172;53.550;9.964;2022-11-20T09:00:41;3.00;;;2.60;;
37284;SDS011;23172;53.550;9.964;2022-11-20T09:05:43;3.60;;;2.47;;
37284;SDS011;23172;53.550;9.964;2022-11-20T09:10:45;4.18;;;3.25;;
37284;SDS011;23172;53.550;9.964;2022-11-20T09:15:48;3.35;;;3.05;;
37284;SDS011;23172;53.550;9.964;2022-11-20T09:20:56;4.47;;;3.30;;
37284;SDS011;23172;53.550;9.964;2022-11-20T09:26:01;3.80;;;3.50;;
37284;SDS011;23172;53.550;9.964;2022-11-20T09:31:05;4.80;;;4.10;;
37284;SDS011;23172;53.550;9.964;2022-11-20T09:36:08;4.00;;;3.70;;
37284;SDS011;23172;53.550;9.964;2022-11-20T09:41:14;3.90;;;3.60;;
37284;SDS011;23172;53.550;9.964;2022-11-20T09:46:35;3.80;;;3.50;;
37284;SDS011;23172;53.550;9.964;2022-11-20T09:51:44;3.75;;;3.45;;
37284;SDS011;23172;53.550;9.964;2022-11-20T09:56:53;3.50;;;3.20;;
37284;SDS011;23172;53.550;9.964;2022-11-20T10:02:01;3.60;;;3.30;;
37284;SDS011;23172;53.550;9.964;2022-11-20T10:07:16;3.77;;;3.47;;
37284;SDS011;23172;53.550;9.964;2022-11-20T10:12:25;3.70;;;3.40;;
37284;SDS011;23172;53.550;9.964;2022-11-20T10:17:40;3.30;;;3.00;;
37284;SDS011;23172;53.550;9.964;2022-11-20T10:23:00;3.17;;;2.90;;
37284;SDS011;23172;53.550;9.964;2022-11-20T10:28:16;3.33;;;3.03;;
37284;SDS011;23172;53.550;9.964;2022-11-20T10:33:26;3.30;;;3.10;;
37284;SDS011;23172;53.550;9.964;2022-11-20T10:38:31;3.97;;;3.65;;
37284;SDS011;23172;53.550;9.964;2022-11-20T10:43:38;3.92;;;3.63;;
37284;SDS011;23172;53.550;9.964;2022-11-20T10:48:42;4.33;;;3.97;;
37284;SDS011;23172;53.550;9.964;2022-11-20T10:53:51;6.57;;;5.97;;
37284;SDS011;23172;53.550;9.964;2022-11-20T11:04:35;19.33;;;16.13;;
37284;SDS011;23172;53.550;9.964;2022-11-20T11:09:43;8.60;;;7.70;;
37284;SDS011;23172;53.550;9.964;2022-11-20T11:14:48;5.57;;;5.03;;
37284;SDS011;23172;53.550;9.964;2022-11-20T11:20:02;9.13;;;7.70;;
37284;SDS011;23172;53.550;9.964;2022-11-20T11:25:07;8.00;;;6.85;;
37284;SDS011;23172;53.550;9.964;2022-11-20T11:30:20;9.13;;;6.75;;
37284;SDS011;23172;53.550;9.964;2022-11-20T11:35:25;6.70;;;5.15;;
37284;SDS011;23172;53.550;9.964;2022-11-20T11:40:29;8.30;;;6.00;;
37284;SDS011;23172;53.550;9.964;2022-11-20T11:45:33;5.30;;;4.30;;
37284;SDS011;23172;53.550;9.964;2022-11-20T11:50:37;4.95;;;3.70;;
37284;SDS011;23172;53.550;9.964;2022-11-20T11:55:49;4.60;;;4.20;;
37284;SDS011;23172;53.550;9.964;2022-11-20T12:00:58;4.47;;;4.07;;
37284;SDS011;23172;53.550;9.964;2022-11-20T12:06:08;2.65;;;2.45;;
37284;SDS011;23172;53.550;9.964;2022-11-20T12:11:14;3.45;;;3.08;;
37284;SDS011;23172;53.550;9.964;2022-11-20T12:16:21;2.80;;;2.60;;
37284;SDS011;23172;53.550;9.964;2022-11-20T12:21:28;2.53;;;2.33;;
37284;SDS011;23172;53.550;9.964;2022-11-20T12:26:45;2.45;;;2.25;;
37284;SDS011;23172;53.550;9.964;2022-11-20T12:31:59;3.10;;;2.80;;
37284;SDS011;23172;53.550;9.964;2022-11-20T12:37:21;3.45;;;3.15;;
37284;SDS011;23172;53.550;9.964;2022-11-20T12:42:46;3.05;;;2.75;;
37284;SDS011;23172;53.550;9.964;2022-11-20T12:53:58;7.35;;;5.35;;
37284;SDS011;23172;53.550;9.964;2022-11-20T12:59:18;25.90;;;19.30;;
37284;SDS011;23172;53.550;9.964;2022-11-20T13:10:12;4.10;;;3.70;;
37284;SDS011;23172;53.550;9.964;2022-11-20T13:15:23;5.22;;;4.25;;
37284;SDS011;23172;53.550;9.964;2022-11-20T13:20:35;3.70;;;3.40;;
37284;SDS011;23172;53.550;9.964;2022-11-20T13:25:43;10.80;;;8.60;;
37284;SDS011;23172;53.550;9.964;2022-11-20T13:30:48;6.75;;;5.47;;
37284;SDS011;23172;53.550;9.964;2022-11-20T13:35:54;3.00;;;2.70;;
37284;SDS011;23172;53.550;9.964;2022-11-20T13:41:00;9.80;;;7.28;;
37284;SDS011;23172;53.550;9.964;2022-11-20T13:46:23;21.08;;;14.60;;
37284;SDS011;23172;53.550;9.964;2022-11-20T13:51:37;14.90;;;9.38;;
37284;SDS011;23172;53.550;9.964;2022-11-20T13:56:50;9.23;;;6.80;;
37284;SDS011;23172;53.550;9.964;2022-11-20T14:02:02;6.07;;;5.10;;
37284;SDS011;23172;53.550;9.964;2022-11-20T14:07:05;6.72;;;5.05;;
37284;SDS011;23172;53.550;9.964;2022-11-20T14:12:14;6.57;;;4.20;;
37284;SDS011;23172;53.550;9.964;2022-11-20T14:17:19;16.60;;;11.00;;
37284;SDS011;23172;53.550;9.964;2022-11-20T14:22:23;5.07;;;4.05;;
37284;SDS011;23172;53.550;9.964;2022-11-20T14:27:27;8.90;;;6.78;;
37284;SDS011;23172;53.550;9.964;2022-11-20T14:32:29;3.67;;;3.30;;
37284;SDS011;23172;53.550;9.964;2022-11-20T14:37:33;5.00;;;4.25;;
37284;SDS011;23172;53.550;9.964;2022-11-20T14:42:43;8.43;;;6.28;;
37284;SDS011;23172;53.550;9.964;2022-11-20T14:47:45;4.50;;;4.10;;
37284;SDS011;23172;53.550;9.964;2022-11-20T14:52:51;8.20;;;5.93;;
37284;SDS011;23172;53.550;9.964;2022-11-20T14:57:56;5.50;;;3.70;;
37284;SDS011;23172;53.550;9.964;2022-11-20T15:02:59;4.90;;;4.35;;
37284;SDS011;23172;53.550;9.964;2022-11-20T15:08:05;4.53;;;3.58;;
37284;SDS011;23172;53.550;9.964;2022-11-20T15:13:12;5.35;;;4.07;;
37284;SDS011;23172;53.550;9.964;2022-11-20T15:18:15;4.43;;;3.88;;
37284;SDS011;23172;53.550;9.964;2022-11-20T15:23:19;5.10;;;3.65;;
37284;SDS011;23172;53.550;9.964;2022-11-20T15:28:23;5.13;;;3.60;;
37284;SDS011;23172;53.550;9.964;2022-11-20T15:33:30;14.20;;;10.52;;
37284;SDS011;23172;53.550;9.964;2022-11-20T15:38:32;11.38;;;7.40;;
37284;SDS011;23172;53.550;9.964;2022-11-20T15:43:35;6.65;;;5.07;;
37284;SDS011;23172;53.550;9.964;2022-11-20T15:48:39;6.35;;;5.18;;
37284;SDS011;23172;53.550;9.964;2022-11-20T15:53:43;4.50;;;3.70;;
37284;SDS011;23172;53.550;9.964;2022-11-20T15:58:46;7.15;;;4.85;;
37284;SDS011;23172;53.550;9.964;2022-11-20T16:03:48;4.80;;;4.30;;
37284;SDS011;23172;53.550;9.964;2022-11-20T16:08:50;6.72;;;5.80;;
37284;SDS011;23172;53.550;9.964;2022-11-20T16:13:53;8.40;;;7.10;;
37284;SDS011;23172;53.550;9.964;2022-11-20T16:19:13;5.20;;;4.35;;
37284;SDS011;23172;53.550;9.964;2022-11-20T16:24:15;6.00;;;4.70;;
37284;SDS011;23172;53.550;9.964;2022-11-20T16:29:19;6.43;;;4.93;;
37284;SDS011;23172;53.550;9.964;2022-11-20T16:34:21;4.28;;;3.67;;
37284;SDS011;23172;53.550;9.964;2022-11-20T16:39:23;5.95;;;4.22;;
37284;SDS011;23172;53.550;9.964;2022-11-20T16:44:27;4.03;;;3.63;;
37284;SDS011;23172;53.550;9.964;2022-11-20T16:49:29;6.95;;;5.60;;
37284;SDS011;23172;53.550;9.964;2022-11-20T16:54:32;6.40;;;5.30;;
37284;SDS011;23172;53.550;9.964;2022-11-20T16:59:35;124.50;;;49.58;;
37284;SDS011;23172;53.550;9.964;2022-11-20T17:04:37;11.30;;;7.03;;
37284;SDS011;23172;53.550;9.964;2022-11-20T17:09:40;8.20;;;5.82;;
37284;SDS011;23172;53.550;9.964;2022-11-20T17:14:43;6.15;;;5.22;;
37284;SDS011;23172;53.550;9.964;2022-11-20T17:19:45;6.30;;;4.38;;
37284;SDS011;23172;53.550;9.964;2022-11-20T17:24:47;5.15;;;3.63;;
37284;SDS011;23172;53.550;9.964;2022-11-20T17:29:50;5.75;;;3.80;;
37284;SDS011;23172;53.550;9.964;2022-11-20T17:34:53;3.50;;;3.20;;
37284;SDS011;23172;53.550;9.964;2022-11-20T17:39:57;7.05;;;5.05;;
37284;SDS011;23172;53.550;9.964;2022-11-20T17:45:01;5.80;;;5.18;;
37284;SDS011;23172;53.550;9.964;2022-11-20T17:50:03;5.45;;;4.63;;
37284;SDS011;23172;53.550;9.964;2022-11-20T17:55:06;8.70;;;6.63;;
37284;SDS011;23172;53.550;9.964;2022-11-20T18:00:10;8.90;;;6.10;;
37284;SDS011;23172;53.550;9.964;2022-11-20T18:05:15;8.73;;;6.32;;
37284;SDS011;23172;53.550;9.964;2022-11-20T18:10:17;7.07;;;6.18;;
37284;SDS011;23172;53.550;9.964;2022-11-20T18:15:21;7.72;;;6.93;;
37284;SDS011;23172;53.550;9.964;2022-11-20T18:20:23;12.25;;;9.82;;
37284;SDS011;23172;53.550;9.964;2022-11-20T18:25:25;11.32;;;9.32;;
37284;SDS011;23172;53.550;9.964;2022-11-20T18:30:28;15.88;;;11.63;;
37284;SDS011;23172;53.550;9.964;2022-11-20T18:35:30;18.55;;;14.38;;
37284;SDS011;23172;53.550;9.964;2022-11-20T18:40:33;22.95;;;17.27;;
37284;SDS011;23172;53.550;9.964;2022-11-20T18:45:36;22.92;;;15.95;;
37284;SDS011;23172;53.550;9.964;2022-11-20T18:50:38;21.58;;;16.02;;
37284;SDS011;23172;53.550;9.964;2022-11-20T18:55:40;19.17;;;15.57;;
37284;SDS011;23172;53.550;9.964;2022-11-20T19:00:43;21.90;;;17.50;;
37284;SDS011;23172;53.550;9.964;2022-11-20T19:05:45;20.80;;;16.67;;
37284;SDS011;23172;53.550;9.964;2022-11-20T19:10:47;20.17;;;15.77;;
37284;SDS011;23172;53.550;9.964;2022-11-20T19:15:51;21.02;;;18.83;;
37284;SDS011;23172;53.550;9.964;2022-11-20T19:20:53;17.45;;;14.07;;
37284;SDS011;23172;53.550;9.964;2022-11-20T19:25:57;17.13;;;13.07;;
37284;SDS011;23172;53.550;9.964;2022-11-20T19:31:02;18.90;;;13.38;;
37284;SDS011;23172;53.550;9.964;2022-11-20T19:36:08;22.35;;;20.05;;
37284;SDS011;23172;53.550;9.964;2022-11-20T19:41:10;24.23;;;21.73;;
37284;SDS011;23172;53.550;9.964;2022-11-20T19:46:14;21.95;;;19.65;;
37284;SDS011;23172;53.550;9.964;2022-11-20T19:51:17;21.02;;;18.92;;
37284;SDS011;23172;53.550;9.964;2022-11-20T19:56:19;19.77;;;16.52;;
37284;SDS011;23172;53.550;9.964;2022-11-20T20:01:23;17.65;;;15.70;;
37284;SDS011;23172;53.550;9.964;2022-11-20T20:06:26;19.95;;;14.98;;
37284;SDS011;23172;53.550;9.964;2022-11-20T20:11:29;20.00;;;15.32;;
37284;SDS011;23172;53.550;9.964;2022-11-20T20:16:33;19.10;;;16.08;;
37284;SDS011;23172;53.550;9.964;2022-11-20T20:21:35;20.93;;;18.50;;
37284;SDS011;23172;53.550;9.964;2022-11-20T20:26:37;21.70;;;19.43;;
37284;SDS011;23172;53.550;9.964;2022-11-20T20:31:41;25.97;;;22.37;;
37284;SDS011;23172;53.550;9.964;2022-11-20T20:36:43;20.13;;;16.55;;
37284;SDS011;23172;53.550;9.964;2022-11-20T20:41:45;17.17;;;13.68;;
37284;SDS011;23172;53.550;9.964;2022-11-20T20:46:51;22.15;;;19.85;;
37284;SDS011;23172;53.550;9.964;2022-11-20T20:51:53;20.95;;;16.35;;
37284;SDS011;23172;53.550;9.964;2022-11-20T20:56:55;20.55;;;16.73;;
37284;SDS011;23172;53.550;9.964;2022-11-20T21:01:59;21.20;;;16.88;;
37284;SDS011;23172;53.550;9.964;2022-11-20T21:07:01;23.17;;;20.70;;
37284;SDS011;23172;53.550;9.964;2022-11-20T21:12:03;20.50;;;17.02;;
37284;SDS011;23172;53.550;9.964;2022-11-20T21:17:07;22.30;;;18.77;;
37284;SDS011;23172;53.550;9.964;2022-11-20T21:22:10;23.92;;;17.30;;
37284;SDS011;23172;53.550;9.964;2022-11-20T21:27:12;21.80;;;18.35;;
37284;SDS011;23172;53.550;9.964;2022-11-20T21:32:15;16.95;;;14.65;;
37284;SDS011;23172;53.550;9.964;2022-11-20T21:37:18;22.80;;;20.40;;
37284;SDS011;23172;53.550;9.964;2022-11-20T21:42:20;24.03;;;21.07;;
37284;SDS011;23172;53.550;9.964;2022-11-20T21:47:23;17.88;;;14.50;;
37284;SDS011;23172;53.550;9.964;2022-11-20T21:52:26;22.48;;;17.45;;
37284;SDS011;23172;53.550;9.964;2022-11-20T21:57:28;25.80;;;23.03;;
37284;SDS011;23172;53.550;9.964;2022-11-20T22:02:31;20.50;;;16.63;;
37284;SDS011;23172;53.550;9.964;2022-11-20T22:07:34;17.42;;;13.60;;
37284;SDS011;23172;53.550;9.964;2022-11-20T22:12:36;22.65;;;20.25;;
37284;SDS011;23172;53.550;9.964;2022-11-20T22:17:39;23.77;;;18.77;;
37284;SDS011;23172;53.550;9.964;2022-11-20T22:22:59;17.50;;;15.23;;
37284;SDS011;23172;53.550;9.964;2022-11-20T22:28:01;24.17;;;21.67;;
37284;SDS011;23172;53.550;9.964;2022-11-20T22:33:05;25.23;;;20.27;;
37284;SDS011;23172;53.550;9.964;2022-11-20T22:43:09;21.75;;;16.60;;
37284;SDS011;23172;53.550;9.964;2022-11-20T22:48:12;22.48;;;20.17;;
37284;SDS011;23172;53.550;9.964;2022-11-20T22:53:14;22.80;;;20.50;;
37284;SDS011;23172;53.550;9.964;2022-11-20T22:58:17;20.67;;;17.40;;
37284;SDS011;23172;53.550;9.964;2022-11-20T23:03:20;21.25;;;17.73;;
37284;SDS011;23172;53.550;9.964;2022-11-20T23:08:22;23.17;;;17.90;;
37284;SDS011;23172;53.550;9.964;2022-11-20T23:13:25;24.98;;;22.27;;
37284;SDS011;23172;53.550;9.964;2022-11-20T23:18:28;23.05;;;17.77;;
37284;SDS011;23172;53.550;9.964;2022-11-20T23:23:30;23.95;;;18.73;;
37284;SDS011;23172;53.550;9.964;2022-11-20T23:28:32;24.60;;;18.92;;
37284;SDS011;23172;53.550;9.964;2022-11-20T23:33:37;26.67;;;23.87;;
37284;SDS011;23172;53.550;9.964;2022-11-20T23:38:40;25.83;;;22.98;;
37284;SDS011;23172;53.550;9.964;2022-11-20T23:43:42;21.42;;;18.23;;
37284;SDS011;23172;53.550;9.964;2022-11-20T23:48:45;22.63;;;16.60;;
37284;SDS011;23172;53.550;9.964;2022-11-20T23:53:47;24.40;;;21.80;;
37284;SDS011;23172;53.550;9.964;2022-11-20T23:58:49;26.30;;;23.13;;
